sensor_id;sensor_type;location;lat;lon;timestamp;P1;durP1;ratioP1;P2;durP2;ratioP2
69185;SDS011;56298;49.246;9.410;2023-05-07T00:00:07;7.17;;;3.90;;
69185;SDS011;56298;49.246;9.410;2023-05-07T00:02:33;6.40;;;3.37;;
69185;SDS011;56298;49.246;9.410;2023-05-07T00:04:58;6.47;;;3.40;;
69185;SDS011;56298;49.246;9.410;2023-05-07T00:07:24;5.93;;;3.60;;
69185;SDS011;56298;49.246;9.410;2023-05-07T00:09:49;6.47;;;3.20;;
69185;SDS011;56298;49.246;9.410;2023-05-07T00:12:14;8.97;;;3.87;;
69185;SDS011;56298;49.246;9.410;2023-05-07T00:14:39;7.13;;;3.60;;
69185;SDS011;56298;49.246;9.410;2023-05-07T00:17:05;8.52;;;3.63;;
69185;SDS011;56298;49.246;9.410;2023-05-07T00:19:30;6.73;;;3.87;;
69185;SDS011;56298;49.246;9.410;2023-05-07T00:21:56;7.50;;;3.80;;
69185;SDS011;56298;49.246;9.410;2023-05-07T00:24:23;8.30;;;3.78;;
69185;SDS011;56298;49.246;9.410;2023-05-07T00:26:49;7.78;;;3.70;;
69185;SDS011;56298;49.246;9.410;2023-05-07T00:29:14;7.30;;;4.10;;
69185;SDS011;56298;49.246;9.410;2023-05-07T00:31:39;8.77;;;3.60;;
69185;SDS011;56298;49.246;9.410;2023-05-07T00:34:05;7.17;;;3.80;;
69185;SDS011;56298;49.246;9.410;2023-05-07T00:36:30;7.13;;;4.07;;
69185;SDS011;56298;49.246;9.410;2023-05-07T00:38:56;7.13;;;3.97;;
69185;SDS011;56298;49.246;9.410;2023-05-07T00:41:24;7.27;;;3.60;;
69185;SDS011;56298;49.246;9.410;2023-05-07T00:43:50;6.93;;;3.80;;
69185;SDS011;56298;49.246;9.410;2023-05-07T00:46:16;6.90;;;3.67;;
69185;SDS011;56298;49.246;9.410;2023-05-07T00:48:42;6.82;;;4.07;;
69185;SDS011;56298;49.246;9.410;2023-05-07T00:51:07;7.73;;;3.80;;
69185;SDS011;56298;49.246;9.410;2023-05-07T00:53:34;8.05;;;4.00;;
69185;SDS011;56298;49.246;9.410;2023-05-07T00:55:59;7.00;;;3.97;;
69185;SDS011;56298;49.246;9.410;2023-05-07T00:58:25;7.80;;;4.35;;
69185;SDS011;56298;49.246;9.410;2023-05-07T01:00:51;7.13;;;4.00;;
69185;SDS011;56298;49.246;9.410;2023-05-07T01:03:16;7.33;;;4.03;;
69185;SDS011;56298;49.246;9.410;2023-05-07T01:05:42;8.83;;;4.50;;
69185;SDS011;56298;49.246;9.410;2023-05-07T01:08:10;7.07;;;4.30;;
69185;SDS011;56298;49.246;9.410;2023-05-07T01:10:35;8.33;;;4.03;;
69185;SDS011;56298;49.246;9.410;2023-05-07T01:13:01;6.20;;;4.10;;
69185;SDS011;56298;49.246;9.410;2023-05-07T01:15:26;6.73;;;3.70;;
69185;SDS011;56298;49.246;9.410;2023-05-07T01:17:52;6.67;;;3.83;;
69185;SDS011;56298;49.246;9.410;2023-05-07T01:20:18;6.65;;;4.00;;
69185;SDS011;56298;49.246;9.410;2023-05-07T01:22:44;7.22;;;4.07;;
69185;SDS011;56298;49.246;9.410;2023-05-07T01:25:10;8.67;;;4.30;;
69185;SDS011;56298;49.246;9.410;2023-05-07T01:27:35;7.73;;;4.40;;
69185;SDS011;56298;49.246;9.410;2023-05-07T01:30:02;7.22;;;4.50;;
69185;SDS011;56298;49.246;9.410;2023-05-07T01:32:29;7.85;;;4.20;;
69185;SDS011;56298;49.246;9.410;2023-05-07T01:35:13;7.97;;;4.47;;
69185;SDS011;56298;49.246;9.410;2023-05-07T01:37:43;7.85;;;4.38;;
69185;SDS011;56298;49.246;9.410;2023-05-07T01:40:08;8.27;;;4.43;;
69185;SDS011;56298;49.246;9.410;2023-05-07T01:42:34;7.32;;;4.00;;
69185;SDS011;56298;49.246;9.410;2023-05-07T01:45:00;8.27;;;4.00;;
69185;SDS011;56298;49.246;9.410;2023-05-07T01:47:25;6.47;;;3.93;;
69185;SDS011;56298;49.246;9.410;2023-05-07T01:49:51;6.80;;;3.97;;
69185;SDS011;56298;49.246;9.410;2023-05-07T01:52:17;6.80;;;4.40;;
69185;SDS011;56298;49.246;9.410;2023-05-07T01:54:42;8.37;;;4.30;;
69185;SDS011;56298;49.246;9.410;2023-05-07T01:57:07;7.30;;;4.10;;
69185;SDS011;56298;49.246;9.410;2023-05-07T01:59:33;7.50;;;4.30;;
69185;SDS011;56298;49.246;9.410;2023-05-07T02:01:58;7.03;;;4.03;;
69185;SDS011;56298;49.246;9.410;2023-05-07T02:04:23;10.70;;;4.17;;
69185;SDS011;56298;49.246;9.410;2023-05-07T02:06:49;8.27;;;4.40;;
69185;SDS011;56298;49.246;9.410;2023-05-07T02:09:15;7.37;;;4.60;;
69185;SDS011;56298;49.246;9.410;2023-05-07T02:11:40;8.27;;;4.43;;
69185;SDS011;56298;49.246;9.410;2023-05-07T02:14:06;7.00;;;4.53;;
69185;SDS011;56298;49.246;9.410;2023-05-07T02:16:31;10.40;;;4.63;;
69185;SDS011;56298;49.246;9.410;2023-05-07T02:18:56;6.80;;;4.40;;
69185;SDS011;56298;49.246;9.410;2023-05-07T02:21:23;7.40;;;4.70;;
69185;SDS011;56298;49.246;9.410;2023-05-07T02:23:48;7.30;;;4.77;;
69185;SDS011;56298;49.246;9.410;2023-05-07T02:26:13;8.27;;;4.90;;
69185;SDS011;56298;49.246;9.410;2023-05-07T02:28:38;9.17;;;4.93;;
69185;SDS011;56298;49.246;9.410;2023-05-07T02:31:04;9.47;;;4.97;;
69185;SDS011;56298;49.246;9.410;2023-05-07T02:33:29;7.68;;;5.00;;
69185;SDS011;56298;49.246;9.410;2023-05-07T02:35:55;7.37;;;4.77;;
69185;SDS011;56298;49.246;9.410;2023-05-07T02:38:21;7.93;;;4.87;;
69185;SDS011;56298;49.246;9.410;2023-05-07T02:40:46;7.50;;;4.60;;
69185;SDS011;56298;49.246;9.410;2023-05-07T02:43:12;9.40;;;4.97;;
69185;SDS011;56298;49.246;9.410;2023-05-07T02:45:37;7.00;;;4.90;;
69185;SDS011;56298;49.246;9.410;2023-05-07T02:48:02;7.80;;;4.80;;
69185;SDS011;56298;49.246;9.410;2023-05-07T02:50:28;8.80;;;4.93;;
69185;SDS011;56298;49.246;9.410;2023-05-07T02:52:54;7.18;;;5.05;;
69185;SDS011;56298;49.246;9.410;2023-05-07T02:55:19;7.97;;;4.90;;
69185;SDS011;56298;49.246;9.410;2023-05-07T02:57:45;7.95;;;4.85;;
69185;SDS011;56298;49.246;9.410;2023-05-07T03:00:11;8.63;;;4.40;;
69185;SDS011;56298;49.246;9.410;2023-05-07T03:02:37;7.97;;;4.90;;
69185;SDS011;56298;49.246;9.410;2023-05-07T03:05:02;7.67;;;4.90;;
69185;SDS011;56298;49.246;9.410;2023-05-07T03:07:28;7.60;;;4.90;;
69185;SDS011;56298;49.246;9.410;2023-05-07T03:09:53;7.30;;;4.80;;
69185;SDS011;56298;49.246;9.410;2023-05-07T03:12:19;8.90;;;4.57;;
69185;SDS011;56298;49.246;9.410;2023-05-07T03:14:45;8.13;;;5.05;;
69185;SDS011;56298;49.246;9.410;2023-05-07T03:17:10;7.97;;;4.73;;
69185;SDS011;56298;49.246;9.410;2023-05-07T03:19:35;8.27;;;4.97;;
69185;SDS011;56298;49.246;9.410;2023-05-07T03:22:00;8.17;;;4.97;;
69185;SDS011;56298;49.246;9.410;2023-05-07T03:24:26;8.53;;;4.73;;
69185;SDS011;56298;49.246;9.410;2023-05-07T03:26:51;8.47;;;4.73;;
69185;SDS011;56298;49.246;9.410;2023-05-07T03:29:16;8.67;;;5.00;;
69185;SDS011;56298;49.246;9.410;2023-05-07T03:31:42;7.10;;;4.50;;
69185;SDS011;56298;49.246;9.410;2023-05-07T03:34:07;8.67;;;5.10;;
69185;SDS011;56298;49.246;9.410;2023-05-07T03:36:32;8.57;;;4.40;;
69185;SDS011;56298;49.246;9.410;2023-05-07T03:38:57;7.60;;;4.70;;
69185;SDS011;56298;49.246;9.410;2023-05-07T03:41:22;9.17;;;4.50;;
69185;SDS011;56298;49.246;9.410;2023-05-07T03:43:48;7.80;;;4.50;;
69185;SDS011;56298;49.246;9.410;2023-05-07T03:46:13;7.30;;;4.90;;
69185;SDS011;56298;49.246;9.410;2023-05-07T03:48:38;9.03;;;4.90;;
69185;SDS011;56298;49.246;9.410;2023-05-07T03:51:04;8.07;;;4.60;;
69185;SDS011;56298;49.246;9.410;2023-05-07T03:53:29;8.10;;;4.70;;
69185;SDS011;56298;49.246;9.410;2023-05-07T03:55:54;8.57;;;4.60;;
69185;SDS011;56298;49.246;9.410;2023-05-07T03:58:19;8.07;;;4.67;;
69185;SDS011;56298;49.246;9.410;2023-05-07T04:00:45;8.00;;;4.53;;
69185;SDS011;56298;49.246;9.410;2023-05-07T04:03:10;8.70;;;4.77;;
69185;SDS011;56298;49.246;9.410;2023-05-07T04:05:35;7.18;;;4.60;;
69185;SDS011;56298;49.246;9.410;2023-05-07T04:08:01;7.63;;;4.60;;
69185;SDS011;56298;49.246;9.410;2023-05-07T04:10:27;9.43;;;4.90;;
69185;SDS011;56298;49.246;9.410;2023-05-07T04:12:53;6.60;;;4.40;;
69185;SDS011;56298;49.246;9.410;2023-05-07T04:15:18;7.63;;;4.40;;
69185;SDS011;56298;49.246;9.410;2023-05-07T04:17:43;8.23;;;4.70;;
69185;SDS011;56298;49.246;9.410;2023-05-07T04:20:09;7.57;;;4.70;;
69185;SDS011;56298;49.246;9.410;2023-05-07T04:22:35;8.30;;;4.50;;
69185;SDS011;56298;49.246;9.410;2023-05-07T04:25:01;9.87;;;4.93;;
69185;SDS011;56298;49.246;9.410;2023-05-07T04:27:26;7.63;;;4.60;;
69185;SDS011;56298;49.246;9.410;2023-05-07T04:29:52;6.90;;;4.60;;
69185;SDS011;56298;49.246;9.410;2023-05-07T04:32:20;7.70;;;4.60;;
69185;SDS011;56298;49.246;9.410;2023-05-07T04:34:46;7.35;;;4.32;;
69185;SDS011;56298;49.246;9.410;2023-05-07T04:37:11;9.02;;;4.45;;
69185;SDS011;56298;49.246;9.410;2023-05-07T04:39:37;6.93;;;4.27;;
69185;SDS011;56298;49.246;9.410;2023-05-07T04:42:02;7.97;;;4.60;;
69185;SDS011;56298;49.246;9.410;2023-05-07T04:44:28;9.30;;;4.77;;
69185;SDS011;56298;49.246;9.410;2023-05-07T04:46:55;6.83;;;4.50;;
69185;SDS011;56298;49.246;9.410;2023-05-07T04:49:21;7.20;;;4.67;;
69185;SDS011;56298;49.246;9.410;2023-05-07T04:51:46;6.87;;;4.50;;
69185;SDS011;56298;49.246;9.410;2023-05-07T04:54:11;7.30;;;4.63;;
69185;SDS011;56298;49.246;9.410;2023-05-07T04:56:36;9.60;;;4.70;;
69185;SDS011;56298;49.246;9.410;2023-05-07T04:59:02;9.20;;;4.83;;
69185;SDS011;56298;49.246;9.410;2023-05-07T05:01:27;6.87;;;4.63;;
69185;SDS011;56298;49.246;9.410;2023-05-07T05:03:52;7.60;;;4.90;;
69185;SDS011;56298;49.246;9.410;2023-05-07T05:06:17;6.95;;;4.50;;
69185;SDS011;56298;49.246;9.410;2023-05-07T05:08:43;7.33;;;4.43;;
69185;SDS011;56298;49.246;9.410;2023-05-07T05:11:08;7.07;;;4.50;;
69185;SDS011;56298;49.246;9.410;2023-05-07T05:13:33;8.77;;;4.60;;
69185;SDS011;56298;49.246;9.410;2023-05-07T05:15:58;7.13;;;4.37;;
69185;SDS011;56298;49.246;9.410;2023-05-07T05:18:24;7.90;;;4.40;;
69185;SDS011;56298;49.246;9.410;2023-05-07T05:20:49;7.33;;;4.30;;
69185;SDS011;56298;49.246;9.410;2023-05-07T05:23:16;6.55;;;3.80;;
69185;SDS011;56298;49.246;9.410;2023-05-07T05:25:41;6.67;;;4.23;;
69185;SDS011;56298;49.246;9.410;2023-05-07T05:28:07;7.90;;;4.57;;
69185;SDS011;56298;49.246;9.410;2023-05-07T05:30:32;8.53;;;4.30;;
69185;SDS011;56298;49.246;9.410;2023-05-07T05:32:57;7.28;;;4.40;;
69185;SDS011;56298;49.246;9.410;2023-05-07T05:35:23;8.10;;;4.40;;
69185;SDS011;56298;49.246;9.410;2023-05-07T05:37:48;7.00;;;4.47;;
69185;SDS011;56298;49.246;9.410;2023-05-07T05:40:13;7.40;;;3.93;;
69185;SDS011;56298;49.246;9.410;2023-05-07T05:42:38;7.93;;;4.23;;
69185;SDS011;56298;49.246;9.410;2023-05-07T05:45:04;7.60;;;4.10;;
69185;SDS011;56298;49.246;9.410;2023-05-07T05:47:29;7.28;;;4.13;;
69185;SDS011;56298;49.246;9.410;2023-05-07T05:49:55;7.13;;;4.10;;
69185;SDS011;56298;49.246;9.410;2023-05-07T05:52:20;6.10;;;3.70;;
69185;SDS011;56298;49.246;9.410;2023-05-07T05:54:48;6.77;;;3.97;;
69185;SDS011;56298;49.246;9.410;2023-05-07T05:57:13;6.57;;;3.80;;
69185;SDS011;56298;49.246;9.410;2023-05-07T05:59:39;6.43;;;3.70;;
69185;SDS011;56298;49.246;9.410;2023-05-07T06:02:04;5.63;;;3.40;;
69185;SDS011;56298;49.246;9.410;2023-05-07T06:04:30;5.18;;;3.50;;
69185;SDS011;56298;49.246;9.410;2023-05-07T06:06:55;5.30;;;3.10;;
69185;SDS011;56298;49.246;9.410;2023-05-07T06:09:23;6.67;;;3.13;;
69185;SDS011;56298;49.246;9.410;2023-05-07T06:11:48;5.80;;;3.30;;
69185;SDS011;56298;49.246;9.410;2023-05-07T06:14:17;6.07;;;3.20;;
69185;SDS011;56298;49.246;9.410;2023-05-07T06:16:42;6.50;;;3.43;;
69185;SDS011;56298;49.246;9.410;2023-05-07T06:19:07;5.93;;;3.23;;
69185;SDS011;56298;49.246;9.410;2023-05-07T06:21:33;6.90;;;3.57;;
69185;SDS011;56298;49.246;9.410;2023-05-07T06:23:58;7.40;;;3.43;;
69185;SDS011;56298;49.246;9.410;2023-05-07T06:26:23;7.33;;;3.50;;
69185;SDS011;56298;49.246;9.410;2023-05-07T06:28:48;6.80;;;3.63;;
69185;SDS011;56298;49.246;9.410;2023-05-07T06:31:14;6.10;;;3.63;;
69185;SDS011;56298;49.246;9.410;2023-05-07T06:33:41;7.83;;;3.40;;
69185;SDS011;56298;49.246;9.410;2023-05-07T06:36:07;7.13;;;3.40;;
69185;SDS011;56298;49.246;9.410;2023-05-07T06:38:32;6.23;;;3.50;;
69185;SDS011;56298;49.246;9.410;2023-05-07T06:40:58;7.13;;;3.50;;
69185;SDS011;56298;49.246;9.410;2023-05-07T06:43:23;6.30;;;3.40;;
69185;SDS011;56298;49.246;9.410;2023-05-07T06:45:48;6.20;;;3.43;;
69185;SDS011;56298;49.246;9.410;2023-05-07T06:48:13;6.70;;;3.30;;
69185;SDS011;56298;49.246;9.410;2023-05-07T06:50:39;5.13;;;3.00;;
69185;SDS011;56298;49.246;9.410;2023-05-07T06:53:04;7.65;;;3.50;;
69185;SDS011;56298;49.246;9.410;2023-05-07T06:55:30;5.43;;;3.38;;
69185;SDS011;56298;49.246;9.410;2023-05-07T06:57:55;6.55;;;3.50;;
69185;SDS011;56298;49.246;9.410;2023-05-07T07:00:23;6.50;;;3.80;;
69185;SDS011;56298;49.246;9.410;2023-05-07T07:02:48;6.30;;;3.53;;
69185;SDS011;56298;49.246;9.410;2023-05-07T07:05:13;6.10;;;3.57;;
69185;SDS011;56298;49.246;9.410;2023-05-07T07:07:38;8.27;;;3.60;;
69185;SDS011;56298;49.246;9.410;2023-05-07T07:10:04;6.80;;;3.53;;
69185;SDS011;56298;49.246;9.410;2023-05-07T07:12:30;6.30;;;3.40;;
69185;SDS011;56298;49.246;9.410;2023-05-07T07:14:55;5.80;;;3.40;;
69185;SDS011;56298;49.246;9.410;2023-05-07T07:17:20;6.70;;;3.40;;
69185;SDS011;56298;49.246;9.410;2023-05-07T07:19:45;7.33;;;3.73;;
69185;SDS011;56298;49.246;9.410;2023-05-07T07:22:11;6.40;;;3.57;;
69185;SDS011;56298;49.246;9.410;2023-05-07T07:24:36;6.10;;;3.53;;
69185;SDS011;56298;49.246;9.410;2023-05-07T07:27:01;7.17;;;3.50;;
69185;SDS011;56298;49.246;9.410;2023-05-07T07:29:27;5.87;;;3.50;;
69185;SDS011;56298;49.246;9.410;2023-05-07T07:31:52;6.77;;;3.43;;
69185;SDS011;56298;49.246;9.410;2023-05-07T07:34:17;7.20;;;2.90;;
69185;SDS011;56298;49.246;9.410;2023-05-07T07:36:42;5.73;;;3.20;;
69185;SDS011;56298;49.246;9.410;2023-05-07T07:39:08;5.77;;;3.17;;
69185;SDS011;56298;49.246;9.410;2023-05-07T07:41:33;5.90;;;3.33;;
69185;SDS011;56298;49.246;9.410;2023-05-07T07:43:58;5.97;;;3.40;;
69185;SDS011;56298;49.246;9.410;2023-05-07T07:46:23;5.03;;;3.10;;
69185;SDS011;56298;49.246;9.410;2023-05-07T07:48:49;6.80;;;3.20;;
69185;SDS011;56298;49.246;9.410;2023-05-07T07:51:14;5.83;;;3.10;;
69185;SDS011;56298;49.246;9.410;2023-05-07T07:53:39;6.40;;;3.13;;
69185;SDS011;56298;49.246;9.410;2023-05-07T07:56:06;5.88;;;3.30;;
69185;SDS011;56298;49.246;9.410;2023-05-07T07:58:31;6.20;;;3.10;;
69185;SDS011;56298;49.246;9.410;2023-05-07T08:00:56;7.00;;;3.40;;
69185;SDS011;56298;49.246;9.410;2023-05-07T08:03:21;5.10;;;3.10;;
69185;SDS011;56298;49.246;9.410;2023-05-07T08:05:47;5.30;;;2.90;;
69185;SDS011;56298;49.246;9.410;2023-05-07T08:08:14;5.50;;;3.10;;
69185;SDS011;56298;49.246;9.410;2023-05-07T08:10:40;7.20;;;3.38;;
69185;SDS011;56298;49.246;9.410;2023-05-07T08:13:05;6.60;;;3.40;;
69185;SDS011;56298;49.246;9.410;2023-05-07T08:15:30;5.27;;;3.23;;
69185;SDS011;56298;49.246;9.410;2023-05-07T08:17:56;5.80;;;3.50;;
69185;SDS011;56298;49.246;9.410;2023-05-07T08:20:22;5.53;;;3.35;;
69185;SDS011;56298;49.246;9.410;2023-05-07T08:22:48;6.00;;;3.47;;
69185;SDS011;56298;49.246;9.410;2023-05-07T08:25:13;5.90;;;3.40;;
69185;SDS011;56298;49.246;9.410;2023-05-07T08:27:38;6.80;;;3.37;;
69185;SDS011;56298;49.246;9.410;2023-05-07T08:30:04;5.90;;;3.30;;
69185;SDS011;56298;49.246;9.410;2023-05-07T08:32:29;5.80;;;3.10;;
69185;SDS011;56298;49.246;9.410;2023-05-07T08:34:54;5.67;;;3.10;;
69185;SDS011;56298;49.246;9.410;2023-05-07T08:37:20;5.03;;;3.15;;
69185;SDS011;56298;49.246;9.410;2023-05-07T08:39:45;6.40;;;3.20;;
69185;SDS011;56298;49.246;9.410;2023-05-07T08:42:11;5.65;;;3.20;;
69185;SDS011;56298;49.246;9.410;2023-05-07T08:44:37;5.45;;;3.17;;
69185;SDS011;56298;49.246;9.410;2023-05-07T08:47:03;5.57;;;2.80;;
69185;SDS011;56298;49.246;9.410;2023-05-07T08:49:31;4.97;;;2.97;;
69185;SDS011;56298;49.246;9.410;2023-05-07T08:51:58;6.73;;;2.83;;
69185;SDS011;56298;49.246;9.410;2023-05-07T08:54:24;5.55;;;3.03;;
69185;SDS011;56298;49.246;9.410;2023-05-07T08:56:49;5.47;;;2.80;;
69185;SDS011;56298;49.246;9.410;2023-05-07T08:59:15;5.83;;;3.17;;
69185;SDS011;56298;49.246;9.410;2023-05-07T09:01:40;6.17;;;3.40;;
69185;SDS011;56298;49.246;9.410;2023-05-07T09:04:05;6.67;;;3.30;;
69185;SDS011;56298;49.246;9.410;2023-05-07T09:06:32;5.05;;;2.83;;
69185;SDS011;56298;49.246;9.410;2023-05-07T09:08:58;4.80;;;2.78;;
69185;SDS011;56298;49.246;9.410;2023-05-07T09:11:26;4.60;;;2.33;;
69185;SDS011;56298;49.246;9.410;2023-05-07T09:13:54;6.60;;;2.60;;
69185;SDS011;56298;49.246;9.410;2023-05-07T09:16:21;5.80;;;3.17;;
69185;SDS011;56298;49.246;9.410;2023-05-07T09:18:48;5.20;;;2.80;;
69185;SDS011;56298;49.246;9.410;2023-05-07T09:21:19;4.50;;;2.35;;
69185;SDS011;56298;49.246;9.410;2023-05-07T09:23:45;6.80;;;2.63;;
69185;SDS011;56298;49.246;9.410;2023-05-07T09:26:10;4.67;;;2.73;;
69185;SDS011;56298;49.246;9.410;2023-05-07T09:28:39;4.68;;;2.60;;
69185;SDS011;56298;49.246;9.410;2023-05-07T09:31:06;5.00;;;2.28;;
69185;SDS011;56298;49.246;9.410;2023-05-07T09:33:31;5.47;;;2.30;;
69185;SDS011;56298;49.246;9.410;2023-05-07T09:35:56;5.13;;;2.30;;
69185;SDS011;56298;49.246;9.410;2023-05-07T09:38:22;5.80;;;2.67;;
69185;SDS011;56298;49.246;9.410;2023-05-07T09:40:47;5.15;;;2.60;;
69185;SDS011;56298;49.246;9.410;2023-05-07T09:43:26;5.45;;;2.80;;
69185;SDS011;56298;49.246;9.410;2023-05-07T09:45:57;5.30;;;2.63;;
69185;SDS011;56298;49.246;9.410;2023-05-07T09:48:23;5.55;;;2.28;;
69185;SDS011;56298;49.246;9.410;2023-05-07T09:50:51;5.22;;;2.70;;
69185;SDS011;56298;49.246;9.410;2023-05-07T09:53:20;5.65;;;2.90;;
69185;SDS011;56298;49.246;9.410;2023-05-07T09:55:47;5.45;;;1.80;;
69185;SDS011;56298;49.246;9.410;2023-05-07T09:58:12;5.87;;;1.87;;
69185;SDS011;56298;49.246;9.410;2023-05-07T10:00:39;4.30;;;2.00;;
69185;SDS011;56298;49.246;9.410;2023-05-07T10:03:06;5.30;;;1.70;;
69185;SDS011;56298;49.246;9.410;2023-05-07T10:05:34;4.90;;;1.65;;
69185;SDS011;56298;49.246;9.410;2023-05-07T10:08:00;4.13;;;1.48;;
69185;SDS011;56298;49.246;9.410;2023-05-07T10:10:26;4.43;;;1.50;;
69185;SDS011;56298;49.246;9.410;2023-05-07T10:12:52;4.30;;;1.70;;
69185;SDS011;56298;49.246;9.410;2023-05-07T10:15:18;3.80;;;1.50;;
69185;SDS011;56298;49.246;9.410;2023-05-07T10:17:43;4.40;;;1.63;;
69185;SDS011;56298;49.246;9.410;2023-05-07T10:20:09;3.90;;;1.40;;
69185;SDS011;56298;49.246;9.410;2023-05-07T10:22:41;3.80;;;1.50;;
69185;SDS011;56298;49.246;9.410;2023-05-07T10:28:07;5.10;;;1.50;;
69185;SDS011;56298;49.246;9.410;2023-05-07T10:30:40;4.13;;;1.40;;
69185;SDS011;56298;49.246;9.410;2023-05-07T10:33:19;4.72;;;1.58;;
69185;SDS011;56298;49.246;9.410;2023-05-07T10:35:51;3.97;;;1.58;;
69185;SDS011;56298;49.246;9.410;2023-05-07T10:38:20;6.30;;;1.73;;
69185;SDS011;56298;49.246;9.410;2023-05-07T10:40:45;4.10;;;1.50;;
69185;SDS011;56298;49.246;9.410;2023-05-07T10:43:10;4.00;;;1.70;;
69185;SDS011;56298;49.246;9.410;2023-05-07T10:45:36;4.10;;;1.70;;
69185;SDS011;56298;49.246;9.410;2023-05-07T10:50:40;5.80;;;1.73;;
69185;SDS011;56298;49.246;9.410;2023-05-07T10:55:45;4.45;;;1.60;;
69185;SDS011;56298;49.246;9.410;2023-05-07T11:00:47;5.00;;;1.60;;
69185;SDS011;56298;49.246;9.410;2023-05-07T11:03:13;3.53;;;1.80;;
69185;SDS011;56298;49.246;9.410;2023-05-07T11:05:40;3.70;;;1.63;;
69185;SDS011;56298;49.246;9.410;2023-05-07T11:08:06;5.90;;;1.67;;
69185;SDS011;56298;49.246;9.410;2023-05-07T11:13:16;4.35;;;1.58;;
69185;SDS011;56298;49.246;9.410;2023-05-07T11:15:46;3.63;;;1.55;;
69185;SDS011;56298;49.246;9.410;2023-05-07T11:18:13;4.70;;;1.58;;
69185;SDS011;56298;49.246;9.410;2023-05-07T11:26:15;4.35;;;1.60;;
69185;SDS011;56298;49.246;9.410;2023-05-07T11:28:41;4.10;;;1.50;;
69185;SDS011;56298;49.246;9.410;2023-05-07T11:31:07;4.70;;;1.77;;
69185;SDS011;56298;49.246;9.410;2023-05-07T11:33:34;5.65;;;1.58;;
69185;SDS011;56298;49.246;9.410;2023-05-07T11:36:01;3.50;;;1.38;;
69185;SDS011;56298;49.246;9.410;2023-05-07T11:38:28;3.70;;;1.73;;
69185;SDS011;56298;49.246;9.410;2023-05-07T11:40:55;3.33;;;1.60;;
69185;SDS011;56298;49.246;9.410;2023-05-07T11:43:21;4.50;;;1.40;;
69185;SDS011;56298;49.246;9.410;2023-05-07T11:45:48;4.20;;;1.60;;
69185;SDS011;56298;49.246;9.410;2023-05-07T11:48:15;3.80;;;1.65;;
69185;SDS011;56298;49.246;9.410;2023-05-07T11:53:17;4.07;;;1.73;;
69185;SDS011;56298;49.246;9.410;2023-05-07T11:55:43;3.67;;;1.30;;
69185;SDS011;56298;49.246;9.410;2023-05-07T11:58:10;4.68;;;1.60;;
69185;SDS011;56298;49.246;9.410;2023-05-07T12:00:37;3.80;;;1.73;;
69185;SDS011;56298;49.246;9.410;2023-05-07T12:03:03;4.27;;;1.60;;
69185;SDS011;56298;49.246;9.410;2023-05-07T12:05:29;4.40;;;1.70;;
69185;SDS011;56298;49.246;9.410;2023-05-07T12:07:58;3.77;;;1.40;;
69185;SDS011;56298;49.246;9.410;2023-05-07T12:10:23;3.90;;;1.50;;
69185;SDS011;56298;49.246;9.410;2023-05-07T12:12:49;3.58;;;1.70;;
69185;SDS011;56298;49.246;9.410;2023-05-07T12:15:16;4.37;;;1.77;;
69185;SDS011;56298;49.246;9.410;2023-05-07T12:17:42;4.07;;;1.70;;
69185;SDS011;56298;49.246;9.410;2023-05-07T12:20:07;3.90;;;1.65;;
69185;SDS011;56298;49.246;9.410;2023-05-07T12:22:33;3.77;;;1.53;;
69185;SDS011;56298;49.246;9.410;2023-05-07T12:24:58;3.70;;;1.70;;
69185;SDS011;56298;49.246;9.410;2023-05-07T12:27:25;4.83;;;1.70;;
69185;SDS011;56298;49.246;9.410;2023-05-07T12:29:50;4.10;;;1.70;;
69185;SDS011;56298;49.246;9.410;2023-05-07T12:32:16;5.10;;;1.65;;
69185;SDS011;56298;49.246;9.410;2023-05-07T12:34:43;4.30;;;1.50;;
69185;SDS011;56298;49.246;9.410;2023-05-07T12:37:08;4.15;;;1.60;;
69185;SDS011;56298;49.246;9.410;2023-05-07T12:39:35;3.38;;;1.67;;
69185;SDS011;56298;49.246;9.410;2023-05-07T12:42:00;4.73;;;1.80;;
69185;SDS011;56298;49.246;9.410;2023-05-07T12:44:29;3.60;;;1.50;;
69185;SDS011;56298;49.246;9.410;2023-05-07T12:46:58;3.72;;;1.60;;
69185;SDS011;56298;49.246;9.410;2023-05-07T12:49:26;4.10;;;1.50;;
69185;SDS011;56298;49.246;9.410;2023-05-07T12:51:53;3.58;;;1.40;;
69185;SDS011;56298;49.246;9.410;2023-05-07T12:57:01;4.28;;;1.67;;
69185;SDS011;56298;49.246;9.410;2023-05-07T12:59:40;3.80;;;1.70;;
69185;SDS011;56298;49.246;9.410;2023-05-07T13:02:06;4.30;;;1.70;;
69185;SDS011;56298;49.246;9.410;2023-05-07T13:04:32;4.10;;;1.60;;
69185;SDS011;56298;49.246;9.410;2023-05-07T13:06:58;5.63;;;1.70;;
69185;SDS011;56298;49.246;9.410;2023-05-07T13:09:24;4.23;;;1.70;;
69185;SDS011;56298;49.246;9.410;2023-05-07T13:11:50;4.43;;;1.90;;
69185;SDS011;56298;49.246;9.410;2023-05-07T13:14:15;4.90;;;1.60;;
69185;SDS011;56298;49.246;9.410;2023-05-07T13:16:40;3.40;;;1.60;;
69185;SDS011;56298;49.246;9.410;2023-05-07T13:19:06;4.67;;;1.67;;
69185;SDS011;56298;49.246;9.410;2023-05-07T13:21:31;4.80;;;1.90;;
69185;SDS011;56298;49.246;9.410;2023-05-07T13:23:57;5.85;;;1.92;;
69185;SDS011;56298;49.246;9.410;2023-05-07T13:26:23;4.40;;;1.77;;
69185;SDS011;56298;49.246;9.410;2023-05-07T13:28:48;4.03;;;1.60;;
69185;SDS011;56298;49.246;9.410;2023-05-07T13:31:14;4.20;;;1.80;;
69185;SDS011;56298;49.246;9.410;2023-05-07T13:33:39;4.20;;;1.70;;
69185;SDS011;56298;49.246;9.410;2023-05-07T13:36:04;4.60;;;1.60;;
69185;SDS011;56298;49.246;9.410;2023-05-07T13:38:30;4.00;;;1.73;;
69185;SDS011;56298;49.246;9.410;2023-05-07T13:40:55;4.70;;;1.73;;
69185;SDS011;56298;49.246;9.410;2023-05-07T13:43:21;4.13;;;2.10;;
69185;SDS011;56298;49.246;9.410;2023-05-07T13:45:46;3.80;;;1.80;;
69185;SDS011;56298;49.246;9.410;2023-05-07T13:48:11;5.10;;;1.50;;
69185;SDS011;56298;49.246;9.410;2023-05-07T13:50:37;4.97;;;2.00;;
69185;SDS011;56298;49.246;9.410;2023-05-07T13:53:02;4.80;;;2.00;;
69185;SDS011;56298;49.246;9.410;2023-05-07T13:55:28;5.40;;;1.90;;
69185;SDS011;56298;49.246;9.410;2023-05-07T13:57:58;4.35;;;1.83;;
69185;SDS011;56298;49.246;9.410;2023-05-07T14:00:25;4.77;;;2.13;;
69185;SDS011;56298;49.246;9.410;2023-05-07T14:02:51;4.03;;;2.03;;
69185;SDS011;56298;49.246;9.410;2023-05-07T14:05:17;4.50;;;1.70;;
69185;SDS011;56298;49.246;9.410;2023-05-07T14:07:42;4.15;;;1.85;;
69185;SDS011;56298;49.246;9.410;2023-05-07T14:10:07;4.27;;;1.93;;
69185;SDS011;56298;49.246;9.410;2023-05-07T14:12:34;4.10;;;1.95;;
69185;SDS011;56298;49.246;9.410;2023-05-07T14:14:59;5.03;;;2.00;;
69185;SDS011;56298;49.246;9.410;2023-05-07T14:17:25;4.47;;;2.00;;
69185;SDS011;56298;49.246;9.410;2023-05-07T14:19:51;4.20;;;1.80;;
69185;SDS011;56298;49.246;9.410;2023-05-07T14:22:19;4.47;;;1.85;;
69185;SDS011;56298;49.246;9.410;2023-05-07T14:24:45;4.90;;;2.10;;
69185;SDS011;56298;49.246;9.410;2023-05-07T14:27:10;3.90;;;1.90;;
69185;SDS011;56298;49.246;9.410;2023-05-07T14:29:35;4.60;;;2.00;;
69185;SDS011;56298;49.246;9.410;2023-05-07T14:32:01;5.20;;;2.22;;
69185;SDS011;56298;49.246;9.410;2023-05-07T14:34:28;5.22;;;2.15;;
69185;SDS011;56298;49.246;9.410;2023-05-07T14:36:53;5.50;;;2.20;;
69185;SDS011;56298;49.246;9.410;2023-05-07T14:39:18;6.13;;;1.90;;
69185;SDS011;56298;49.246;9.410;2023-05-07T14:41:43;4.40;;;2.00;;
69185;SDS011;56298;49.246;9.410;2023-05-07T14:44:09;4.33;;;2.00;;
69185;SDS011;56298;49.246;9.410;2023-05-07T14:46:34;5.57;;;2.20;;
69185;SDS011;56298;49.246;9.410;2023-05-07T14:48:59;5.20;;;1.53;;
69185;SDS011;56298;49.246;9.410;2023-05-07T14:51:27;5.10;;;1.70;;
69185;SDS011;56298;49.246;9.410;2023-05-07T14:53:53;5.75;;;1.95;;
69185;SDS011;56298;49.246;9.410;2023-05-07T14:56:19;14.03;;;3.47;;
69185;SDS011;56298;49.246;9.410;2023-05-07T14:58:46;8.65;;;2.60;;
69185;SDS011;56298;49.246;9.410;2023-05-07T15:01:11;17.52;;;3.50;;
69185;SDS011;56298;49.246;9.410;2023-05-07T15:03:37;9.30;;;3.30;;